Time;durP1;ratioP1;P1;durP2;ratioP2;P2;SDS_P1;SDS_P2;PMS_P1;PMS_P2;Temp;Humidity;BMP_temperature;BMP_pressure;BME280_temperature;BME280_humidity;BME280_pressure;Samples;Min_cycle;Max_cycle;Signal;HPM_P1;HPM_P2
2021/03/29 00:00:28;;;;;;;11.20;3.83;;;5.50;34.00;;;;;;4992733;28;20125;-81
2021/03/29 00:02:54;;;;;;;11.25;4.63;;;5.50;34.10;;;;;;4993698;28;20073;-81
2021/03/29 00:05:22;;;;;;;8.82;4.10;;;5.50;34.10;;;;;;4992622;28;20042;-81
2021/03/29 00:07:52;;;;;;;9.85;3.90;;;5.50;34.20;;;;;;4994002;28;20133;-79
2021/03/29 00:10:19;;;;;;;8.27;4.03;;;5.40;34.10;;;;;;4993829;28;20575;-80
2021/03/29 00:12:47;;;;;;;10.30;4.28;;;5.70;34.30;;;;;;4993690;28;20042;-79
2021/03/29 00:15:16;;;;;;;10.18;4.20;;;5.40;34.30;;;;;;4993343;28;20026;-80
2021/03/29 00:17:43;;;;;;;14.93;4.35;;;5.40;34.40;;;;;;4993746;28;20033;-80
2021/03/29 00:20:14;;;;;;;9.65;4.28;;;5.40;34.40;;;;;;4976286;28;20497;-79
2021/03/29 00:22:40;;;;;;;10.43;4.05;;;5.30;34.40;;;;;;4993589;28;20073;-80
2021/03/29 00:25:10;;;;;;;9.85;4.53;;;5.30;34.40;;;;;;4993879;28;20023;-80
2021/03/29 00:27:35;;;;;;;10.60;4.90;;;5.30;34.50;;;;;;4993930;28;20125;-80
2021/03/29 00:30:05;;;;;;;14.02;4.95;;;5.20;34.60;;;;;;4993798;28;20479;-80
2021/03/29 00:32:31;;;;;;;11.45;4.25;;;5.20;34.60;;;;;;4976653;28;20050;-80
2021/03/29 00:34:57;;;;;;;11.30;4.60;;;5.20;34.60;;;;;;4993859;28;20026;-79
2021/03/29 00:37:23;;;;;;;10.65;4.35;;;5.20;34.70;;;;;;4993620;28;20026;-80
2021/03/29 00:39:49;;;;;;;13.48;4.70;;;5.10;34.70;;;;;;4976159;28;20038;-80
2021/03/29 00:42:16;;;;;;;10.20;4.70;;;5.10;34.80;;;;;;4993385;28;20113;-80
2021/03/29 00:44:43;;;;;;;11.13;4.72;;;5.00;34.90;;;;;;4993324;28;20022;-80
2021/03/29 00:47:09;;;;;;;11.50;4.82;;;5.00;34.80;;;;;;5008628;28;20026;-80
2021/03/29 00:49:35;;;;;;;10.70;4.38;;;5.00;35.50;;;;;;4996239;28;20367;-80
2021/03/29 00:52:01;;;;;;;12.68;4.63;;;5.00;35.00;;;;;;4999002;28;20038;-80
2021/03/29 00:54:28;;;;;;;8.73;4.43;;;5.00;35.00;;;;;;5016611;28;20109;-80
2021/03/29 00:56:54;;;;;;;10.32;4.40;;;4.90;35.10;;;;;;4998747;28;20034;-80
2021/03/29 00:59:20;;;;;;;11.18;4.55;;;4.90;35.20;;;;;;4999112;28;20019;-80
2021/03/29 01:01:49;;;;;;;12.02;4.50;;;4.90;35.20;;;;;;5016400;28;20393;-80
2021/03/29 01:04:16;;;;;;;11.05;4.20;;;4.80;35.20;;;;;;5016270;28;20024;-80
2021/03/29 01:06:44;;;;;;;10.38;4.53;;;4.80;35.30;;;;;;5016122;28;20500;-80
2021/03/29 01:09:31;;;;;;;9.88;4.22;;;5.50;35.70;;;;;;5016347;28;20034;-80
2021/03/29 01:12:03;;;;;;;9.70;3.95;;;4.80;35.70;;;;;;5016165;28;20030;-81
2021/03/29 01:14:42;;;;;;;13.20;4.40;;;4.80;35.70;;;;;;5016182;28;20030;-81
2021/03/29 01:17:27;;;;;;;9.43;3.85;;;4.80;35.60;;;;;;5015615;28;20049;-80
2021/03/29 01:20:02;;;;;;;13.27;4.78;;;4.80;35.90;;;;;;5016100;28;20493;-80
2021/03/29 01:22:32;;;;;;;;;;;4.80;35.90;;;;;;5016518;28;20025;-80
2021/03/29 01:25:23;;;;;;;10.02;4.20;;;4.80;35.70;;;;;;5015803;28;19912;-80
2021/03/29 01:28:09;;;;;;;11.38;4.20;;;4.80;36.00;;;;;;5015823;28;20026;-80
2021/03/29 01:30:37;;;;;;;9.82;4.03;;;4.80;35.90;;;;;;5015889;28;20026;-81
2021/03/29 01:33:05;;;;;;;9.63;4.20;;;4.70;35.70;;;;;;5015524;28;20034;-81
2021/03/29 01:35:34;;;;;;;10.88;4.50;;;4.70;35.80;;;;;;5015814;28;20063;-80
2021/03/29 01:38:01;;;;;;;9.10;4.43;;;4.70;35.80;;;;;;5015710;28;20022;-80
2021/03/29 01:40:28;;;;;;;11.73;4.43;;;4.50;35.80;;;;;;5015507;28;20493;-80
2021/03/29 01:42:55;;;;;;;10.68;4.10;;;4.60;35.90;;;;;;5015558;28;20014;-80
2021/03/29 01:45:23;;;;;;;11.75;4.05;;;4.50;36.00;;;;;;5014872;28;20025;-80
2021/03/29 01:47:48;;;;;;;9.60;3.90;;;4.50;36.00;;;;;;4996234;28;20081;-80
2021/03/29 01:50:18;;;;;;;9.88;4.40;;;4.50;36.40;;;;;;4995947;28;20030;-80
2021/03/29 01:52:44;;;;;;;11.77;4.10;;;4.40;36.10;;;;;;4995693;28;20026;-80
2021/03/29 01:55:11;;;;;;;10.52;4.65;;;4.40;36.10;;;;;;4995670;28;20026;-80
2021/03/29 01:57:37;;;;;;;9.85;4.32;;;4.80;36.40;;;;;;4995845;28;20054;-80
2021/03/29 02:00:15;;;;;;;9.95;4.50;;;4.90;36.50;;;;;;4978314;28;20062;-80
2021/03/29 02:02:42;;;;;;;10.48;4.85;;;4.30;36.40;;;;;;4994841;28;20498;-80
2021/03/29 02:05:13;;;;;;;12.55;5.05;;;4.30;36.30;;;;;;4995361;28;20018;-80
2021/03/29 02:07:40;;;;;;;10.98;5.40;;;4.30;36.40;;;;;;4978112;28;20498;-80
2021/03/29 02:10:11;;;;;;;13.52;4.97;;;4.30;36.40;;;;;;4995478;28;20037;-80
2021/03/29 02:12:38;;;;;;;11.20;4.97;;;4.20;36.40;;;;;;4995447;28;20038;-80
2021/03/29 02:15:08;;;;;;;11.73;4.32;;;4.20;36.50;;;;;;4995361;28;20118;-80
2021/03/29 02:17:34;;;;;;;9.73;4.82;;;4.20;36.60;;;;;;4995379;28;20066;-80
2021/03/29 02:20:01;;;;;;;10.23;4.72;;;4.20;36.50;;;;;;4995039;28;20463;-80
2021/03/29 02:22:27;;;;;;;10.73;5.00;;;4.20;36.70;;;;;;4995317;28;20467;-80
2021/03/29 02:24:53;;;;;;;10.18;4.97;;;4.20;36.80;;;;;;4995254;28;20042;-81
2021/03/29 02:27:19;;;;;;;11.40;5.05;;;4.20;36.80;;;;;;4977992;28;20042;-81
2021/03/29 02:29:45;;;;;;;12.65;4.72;;;4.20;36.90;;;;;;4995028;28;20034;-81
2021/03/29 02:32:11;;;;;;;12.20;4.95;;;4.20;37.00;;;;;;4994821;28;20045;-81
2021/03/29 02:34:37;;;;;;;13.63;5.22;;;4.20;37.10;;;;;;4995028;28;20059;-81
2021/03/29 02:37:03;;;;;;;13.30;5.00;;;4.30;37.20;;;;;;4994965;28;20125;-79
2021/03/29 02:39:29;;;;;;;10.35;4.90;;;4.30;37.20;;;;;;4994762;28;20081;-81
2021/03/29 02:41:55;;;;;;;10.48;5.07;;;4.30;37.10;;;;;;4994804;28;20026;-80
2021/03/29 02:44:21;;;;;;;10.32;4.70;;;4.20;37.10;;;;;;4977692;28;20058;-81
2021/03/29 02:46:49;;;;;;;14.30;4.80;;;4.20;37.10;;;;;;4989737;28;20080;-81
2021/03/29 02:49:16;;;;;;;12.30;4.35;;;4.20;37.30;;;;;;5014401;28;20486;-82
2021/03/29 02:51:43;;;;;;;10.40;4.63;;;4.20;37.30;;;;;;4996724;28;20034;-82
2021/03/29 02:54:11;;;;;;;10.27;3.92;;;4.20;37.40;;;;;;5014459;28;20032;-80
2021/03/29 02:56:42;;;;;;;11.70;4.80;;;4.10;37.40;;;;;;5014262;28;20026;-80
2021/03/29 02:59:14;;;;;;;13.13;4.82;;;4.10;38.10;;;;;;5014293;28;20018;-80
2021/03/29 03:01:39;;;;;;;9.10;4.00;;;4.10;37.60;;;;;;5013955;28;20474;-80
2021/03/29 03:04:12;;;;;;;9.50;4.30;;;4.10;37.60;;;;;;5014191;28;20033;-79
2021/03/29 03:06:39;;;;;;;9.23;4.00;;;4.10;37.60;;;;;;5014353;28;20014;-81
2021/03/29 03:09:07;;;;;;;10.10;4.47;;;4.10;37.70;;;;;;4996936;28;20029;-80
2021/03/29 03:11:34;;;;;;;11.18;4.25;;;4.10;37.80;;;;;;5014234;28;20478;-79
2021/03/29 03:14:04;;;;;;;11.30;4.70;;;4.10;37.70;;;;;;5013846;28;20030;-80
2021/03/29 03:16:32;;;;;;;12.90;4.95;;;4.10;37.90;;;;;;5013424;28;20050;-80
2021/03/29 03:18:58;;;;;;;10.95;4.82;;;4.10;37.80;;;;;;5013232;28;20386;-80
2021/03/29 03:21:23;;;;;;;12.00;4.97;;;4.10;37.80;;;;;;5013289;28;20030;-80
2021/03/29 03:23:51;;;;;;;11.65;5.32;;;4.10;37.90;;;;;;5013158;28;20385;-81
2021/03/29 03:26:17;;;;;;;10.90;4.80;;;4.10;37.90;;;;;;5013066;28;20394;-81
2021/03/29 03:28:42;;;;;;;10.20;4.88;;;4.10;37.90;;;;;;5013022;28;20030;-80
2021/03/29 03:31:08;;;;;;;10.07;4.90;;;4.30;38.10;;;;;;5013070;28;20026;-80
2021/03/29 03:33:34;;;;;;;12.45;4.97;;;4.00;38.00;;;;;;5013053;28;20109;-80
2021/03/29 03:35:59;;;;;;;9.85;4.78;;;4.00;38.00;;;;;;5013055;28;20422;-80
2021/03/29 03:38:32;;;;;;;9.20;4.57;;;4.00;38.00;;;;;;5012892;28;20026;-80
2021/03/29 03:41:04;;;;;;;11.73;5.38;;;3.90;38.00;;;;;;5013029;28;20060;-80
2021/03/29 03:43:34;;;;;;;10.88;5.18;;;3.90;38.10;;;;;;5012776;28;20026;-80
2021/03/29 03:46:08;;;;;;;11.15;4.68;;;3.90;38.10;;;;;;5006856;28;20474;-80
2021/03/29 03:48:36;;;;;;;11.57;5.07;;;3.80;38.20;;;;;;4993204;28;20034;-80
2021/03/29 03:51:02;;;;;;;9.95;4.40;;;3.80;38.10;;;;;;4993194;28;20022;-80
2021/03/29 03:53:29;;;;;;;9.23;4.38;;;3.80;38.20;;;;;;4993286;28;20057;-80
2021/03/29 03:55:57;;;;;;;12.65;4.78;;;3.80;38.40;;;;;;4993316;28;20109;-80
2021/03/29 03:58:24;;;;;;;9.48;4.53;;;3.80;38.40;;;;;;4975559;28;20113;-80
2021/03/29 04:00:50;;;;;;;11.63;4.68;;;3.80;38.40;;;;;;4993204;28;20022;-80
2021/03/29 04:03:16;;;;;;;13.02;5.63;;;3.70;38.30;;;;;;4993087;28;20023;-80
2021/03/29 04:05:42;;;;;;;12.00;4.97;;;3.70;38.40;;;;;;4993016;28;20479;-80
2021/03/29 04:08:09;;;;;;;11.93;6.15;;;3.60;38.30;;;;;;4993032;28;20038;-80
2021/03/29 04:10:40;;;;;;;14.65;6.63;;;3.60;38.40;;;;;;4993054;28;20026;-80
2021/03/29 04:13:12;;;;;;;11.15;6.00;;;3.60;38.50;;;;;;4992699;28;20034;-80
2021/03/29 04:15:38;;;;;;;11.20;6.30;;;3.60;38.50;;;;;;4973487;28;564942;-80
2021/03/29 04:18:05;;;;;;;12.68;6.32;;;3.50;38.60;;;;;;4993790;28;20046;-80
2021/03/29 04:20:31;;;;;;;13.55;6.45;;;3.60;38.70;;;;;;4993564;28;20112;-80
2021/03/29 04:22:57;;;;;;;11.48;6.00;;;3.50;38.70;;;;;;4993763;28;20064;-80
2021/03/29 04:25:22;;;;;;;13.65;6.38;;;3.50;38.70;;;;;;4995866;28;20446;-79
2021/03/29 04:27:48;;;;;;;12.52;5.88;;;3.50;38.70;;;;;;4997420;28;20127;-80
2021/03/29 04:30:14;;;;;;;11.25;5.22;;;3.50;38.70;;;;;;4997170;28;20049;-80
2021/03/29 04:32:40;;;;;;;11.85;5.28;;;3.40;38.70;;;;;;4980320;28;20089;-80
2021/03/29 04:35:07;;;;;;;14.73;5.18;;;3.40;38.80;;;;;;4997260;28;20438;-80
2021/03/29 04:37:33;;;;;;;14.13;4.75;;;3.40;38.80;;;;;;4997335;28;20053;-80
2021/03/29 04:39:59;;;;;;;12.50;5.13;;;3.40;38.90;;;;;;4997273;28;20038;-80
2021/03/29 04:42:25;;;;;;;13.38;4.68;;;3.30;38.90;;;;;;4997044;28;20030;-80
2021/03/29 04:44:50;;;;;;;12.30;4.95;;;3.30;38.90;;;;;;4997185;28;20038;-80
2021/03/29 04:47:16;;;;;;;12.68;4.40;;;3.20;38.90;;;;;;5013345;28;20473;-81
2021/03/29 04:49:42;;;;;;;12.23;4.60;;;3.20;39.00;;;;;;4998941;28;20030;-81
2021/03/29 04:52:08;;;;;;;12.93;5.32;;;3.20;39.10;;;;;;5016610;28;20121;-81
2021/03/29 04:54:34;;;;;;;10.00;4.78;;;3.20;39.10;;;;;;5016146;28;20474;-81
2021/03/29 04:57:00;;;;;;;14.63;4.80;;;3.20;39.20;;;;;;5016551;28;20034;-81
2021/03/29 04:59:26;;;;;;;13.95;5.20;;;3.20;39.20;;;;;;5016574;28;20030;-81
2021/03/29 05:01:52;;;;;;;13.90;5.25;;;3.10;39.20;;;;;;5016448;28;20034;-80
2021/03/29 05:04:17;;;;;;;11.40;4.80;;;3.10;39.20;;;;;;5016472;28;20033;-81
2021/03/29 05:06:43;;;;;;;9.52;4.72;;;3.10;39.20;;;;;;5016024;28;20026;-81
2021/03/29 05:09:08;;;;;;;12.50;5.40;;;3.10;39.30;;;;;;5016397;28;20026;-81
2021/03/29 05:11:46;;;;;;;11.07;5.28;;;3.10;39.50;;;;;;5016147;28;20057;-81
2021/03/29 05:14:12;;;;;;;12.20;5.00;;;3.10;39.50;;;;;;5016277;28;20037;-81
2021/03/29 05:16:38;;;;;;;10.43;4.75;;;3.10;39.50;;;;;;5015971;28;20425;-83
2021/03/29 05:19:04;;;;;;;11.05;4.80;;;3.10;39.80;;;;;;5016301;28;20041;-83
2021/03/29 05:21:29;;;;;;;11.73;4.97;;;3.20;39.90;;;;;;4998616;28;20044;-83
2021/03/29 05:23:55;;;;;;;12.93;5.63;;;3.30;40.10;;;;;;5016497;28;20022;-80
2021/03/29 05:26:21;;;;;;;10.73;4.82;;;3.40;40.00;;;;;;5022539;28;20065;-81
2021/03/29 05:28:46;;;;;;;12.02;4.53;;;3.40;40.20;;;;;;4979973;28;20393;-81
2021/03/29 05:31:12;;;;;;;11.07;4.75;;;3.50;40.30;;;;;;4996536;28;20030;-81
2021/03/29 05:33:37;;;;;;;10.77;4.93;;;3.60;40.30;;;;;;4996868;28;20034;-82
2021/03/29 05:36:05;;;;;;;13.70;5.38;;;3.60;40.30;;;;;;4979168;28;20027;-81
2021/03/29 05:38:31;;;;;;;12.02;5.15;;;3.70;40.40;;;;;;4997017;28;20033;-83
2021/03/29 05:40:57;;;;;;;16.27;5.22;;;3.70;40.30;;;;;;4996652;28;20467;-83
2021/03/29 05:43:24;;;;;;;11.75;5.18;;;3.80;40.40;;;;;;4996151;28;20034;-84
2021/03/29 05:45:50;;;;;;;10.30;5.28;;;3.80;40.50;;;;;;4982942;28;20046;-82
2021/03/29 05:48:26;;;;;;;12.07;5.40;;;4.40;40.80;;;;;;4998385;28;20045;-86
2021/03/29 05:51:18;;;;;;;10.75;5.22;;;3.90;40.70;;;;;;5016004;28;20414;-86
2021/03/29 05:53:43;;;;;;;11.32;5.18;;;4.20;40.90;;;;;;4996992;28;20560;-81
2021/03/29 05:56:14;;;;;;;13.27;5.45;;;4.00;40.80;;;;;;4998090;28;20030;-88
2021/03/29 05:58:55;;;;;;;14.70;6.38;;;4.30;41.20;;;;;;4998014;28;20029;-91
2021/03/29 06:01:23;;;;;;;14.20;5.95;;;4.60;41.00;;;;;;4998107;28;20378;-86
2021/03/29 06:03:51;;;;;;;15.52;5.88;;;4.70;41.30;;;;;;4981735;28;20022;-83
2021/03/29 06:17:47;;;;;;;13.05;5.93;;;4.40;41.20;;;;;;3263927;23;20049;-88
2021/03/29 06:24:15;;;;;;;13.98;4.85;;;4.60;41.70;;;;;;5034850;28;20032;-87
2021/03/29 06:26:44;;;;;;;13.13;4.90;;;4.40;41.40;;;;;;5017112;28;20029;-87
2021/03/29 06:29:19;;;;;;;13.57;5.40;;;5.20;41.80;;;;;;5012973;28;20513;-82
2021/03/29 06:31:45;;;;;;;14.93;4.57;;;4.70;41.50;;;;;;5016476;28;20481;-89
2021/03/29 06:34:10;;;;;;;14.77;5.30;;;4.70;41.90;;;;;;5016797;28;20061;-89
2021/03/29 06:36:40;;;;;;;10.30;4.50;;;4.80;41.70;;;;;;5016808;28;20053;-88
2021/03/29 06:39:14;;;;;;;11.60;4.82;;;5.60;42.00;;;;;;5016892;28;20469;-80
2021/03/29 06:41:41;;;;;;;11.90;4.67;;;4.90;41.80;;;;;;5034500;28;20033;-80
2021/03/29 06:44:37;;;;;;;12.32;4.82;;;5.00;41.80;;;;;;5034298;28;20030;-88
2021/03/29 06:47:23;;;;;;;10.82;4.32;;;5.10;42.10;;;;;;5010555;28;20080;-89
2021/03/29 06:54:01;;;;;;;9.90;3.65;;;5.50;42.50;;;;;;5005960;28;20187;-86
2021/03/29 06:56:30;;;;;;;10.07;4.50;;;5.70;42.90;;;;;;4937440;29;20034;-87
2021/03/29 07:06:42;;;;;;;11.95;4.75;;;6.90;43.80;;;;;;4907187;29;20412;-90
2021/03/29 07:09:29;;;;;;;11.10;4.20;;;7.40;44.00;;;;;;4953443;29;20023;-88
2021/03/29 07:11:56;;;;;;;10.65;4.25;;;8.40;44.50;;;;;;5031245;28;20041;-83
2021/03/29 07:15:23;;;;;;;;;;;;;;;;;;;;;
2021/03/29 07:18:33;;;;;;;12.80;3.58;;;8.50;44.30;;;;;;4933446;29;20044;-86
2021/03/29 07:24:20;;;;;;;9.18;3.13;;;9.40;44.60;;;;;;4934131;29;20034;-81
2021/03/29 07:27:10;;;;;;;9.18;3.05;;;9.80;44.70;;;;;;4934895;29;20032;-93
2021/03/29 07:30:14;;;;;;;7.78;2.85;;;10.20;44.80;;;;;;5010816;28;20061;-94
2021/03/29 07:32:51;;;;;;;11.25;2.63;;;10.60;45.00;;;;;;4965738;28;20393;-92
2021/03/29 07:35:53;;;;;;;6.68;2.35;;;11.10;45.10;;;;;;5033786;28;20025;-90
2021/03/29 07:38:22;;;;;;;6.90;2.35;;;11.40;44.90;;;;;;5012771;28;20417;-89
2021/03/29 07:40:54;;;;;;;5.95;2.30;;;11.90;44.90;;;;;;5016257;28;20026;-91
2021/03/29 07:43:21;;;;;;;8.55;2.63;;;12.50;45.10;;;;;;5016340;28;20032;-92
2021/03/29 07:45:50;;;;;;;10.27;2.78;;;12.30;44.80;;;;;;5016102;28;20524;-89
2021/03/29 07:48:37;;;;;;;8.35;2.65;;;12.60;44.70;;;;;;5038948;28;20038;-89
2021/03/29 07:51:16;;;;;;;8.07;2.65;;;13.20;44.80;;;;;;4988562;28;20038;-91
2021/03/29 07:53:43;;;;;;;6.50;1.85;;;13.00;44.60;;;;;;5043725;28;20128;-87
2021/03/29 07:56:11;;;;;;;4.45;2.17;;;13.40;44.60;;;;;;5035991;28;20025;-92
2021/03/29 07:58:47;;;;;;;7.05;2.15;;;13.10;44.40;;;;;;5035840;28;20027;-87
2021/03/29 08:01:21;;;;;;;10.98;2.40;;;13.20;44.30;;;;;;5039219;28;20017;-89
2021/03/29 08:04:01;;;;;;;;;;;;;;;;;;;;;
2021/03/29 08:06:42;;;;;;;7.13;2.20;;;13.40;44.10;;;;;;5057703;28;20037;-87
2021/03/29 08:09:11;;;;;;;6.97;2.33;;;13.50;44.10;;;;;;5040333;28;20078;-90
2021/03/29 08:11:58;;;;;;;7.20;2.03;;;13.60;44.10;;;;;;5040182;28;20075;-92
2021/03/29 08:14:40;;;;;;;9.35;2.50;;;13.70;44.00;;;;;;5040064;28;20025;-91
2021/03/29 08:17:54;;;;;;;7.63;2.40;;;13.90;44.10;;;;;;5039645;28;20037;-88
2021/03/29 08:20:32;;;;;;;5.00;1.45;;;13.80;43.90;;;;;;5022585;28;20557;-90
2021/03/29 08:23:26;;;;;;;4.30;2.00;;;13.70;43.50;;;;;;5057074;28;20025;-89
2021/03/29 08:26:12;;;;;;;6.65;1.67;;;13.60;43.20;;;;;;5038938;28;20020;-87
2021/03/29 08:29:12;;;;;;;9.77;2.33;;;13.50;43.20;;;;;;5023776;28;20025;-84
2021/03/29 08:32:16;;;;;;;4.78;1.88;;;13.50;43.30;;;;;;4998117;28;20029;-91
2021/03/29 08:34:53;;;;;;;3.70;1.85;;;13.40;43.40;;;;;;5035896;28;20036;-91
2021/03/29 08:37:26;;;;;;;9.27;2.20;;;13.40;43.40;;;;;;5022787;28;20473;-89
2021/03/29 08:39:55;;;;;;;8.98;2.08;;;13.40;43.50;;;;;;5022481;28;20047;-93
2021/03/29 08:42:31;;;;;;;5.60;2.03;;;13.50;43.60;;;;;;5030094;28;20526;-91
2021/03/29 08:44:58;;;;;;;3.83;1.85;;;13.50;43.60;;;;;;5038624;28;20082;-90
2021/03/29 08:47:28;;;;;;;5.80;2.00;;;13.90;43.90;;;;;;5037461;28;20021;-92
2021/03/29 08:50:00;;;;;;;4.75;1.92;;;14.10;44.10;;;;;;5039851;28;20373;-93
2021/03/29 08:53:08;;;;;;;5.60;1.83;;;13.80;43.80;;;;;;5040330;28;20060;-95
2021/03/29 08:55:42;;;;;;;1.88;1.25;;;13.90;43.90;;;;;;5039942;28;20024;-93
2021/03/29 08:58:08;;;;;;;3.42;1.70;;;14.30;43.90;;;;;;5038619;28;20035;-88
2021/03/29 09:00:37;;;;;;;3.95;1.55;;;14.70;44.30;;;;;;5040069;28;20028;-91
2021/03/29 09:03:19;;;;;;;7.75;2.35;;;14.20;44.00;;;;;;5040060;28;20542;-93
2021/03/29 09:05:46;;;;;;;3.42;1.50;;;14.30;44.00;;;;;;5039853;28;20032;-92
2021/03/29 09:08:14;;;;;;;7.90;1.85;;;14.90;44.20;;;;;;5039785;28;20029;-93
2021/03/29 09:10:42;;;;;;;6.03;2.00;;;14.50;43.90;;;;;;5038721;28;20025;-91
2021/03/29 09:13:13;;;;;;;5.47;1.70;;;15.00;44.20;;;;;;5038339;28;20033;-90
2021/03/29 09:15:41;;;;;;;7.50;2.63;;;15.30;44.10;;;;;;5038626;28;20025;-90
2021/03/29 09:18:13;;;;;;;5.32;1.70;;;14.80;43.90;;;;;;5038472;28;20049;-92
2021/03/29 09:20:47;;;;;;;4.50;1.50;;;15.40;43.90;;;;;;5038496;28;20025;-90
2021/03/29 09:23:19;;;;;;;2.70;1.50;;;15.10;43.90;;;;;;5038699;28;20025;-91
2021/03/29 09:25:47;;;;;;;2.83;1.30;;;15.00;43.70;;;;;;5038622;28;20469;-90
2021/03/29 09:31:05;;;;;;;6.78;1.63;;;15.50;44.10;;;;;;5055774;28;20112;-88
2021/03/29 09:33:33;;;;;;;6.32;1.80;;;15.30;43.80;;;;;;5037954;28;20132;-86
2021/03/29 09:36:10;;;;;;;3.20;1.30;;;15.60;43.80;;;;;;5021560;28;20029;-90
2021/03/29 09:38:52;;;;;;;5.03;1.67;;;15.50;43.90;;;;;;5038576;28;20067;-90
2021/03/29 09:41:29;;;;;;;5.90;1.83;;;15.60;43.70;;;;;;5030332;28;20021;-92
2021/03/29 09:43:57;;;;;;;4.30;1.52;;;15.70;43.70;;;;;;5041477;28;20055;-83
2021/03/29 09:46:27;;;;;;;4.78;1.60;;;15.70;43.60;;;;;;5035378;28;20029;-86
2021/03/29 09:49:16;;;;;;;3.10;1.35;;;16.20;43.80;;;;;;5017924;28;20033;-83
2021/03/29 09:51:44;;;;;;;5.65;1.88;;;16.00;43.70;;;;;;5035218;28;20029;-83
2021/03/29 09:54:31;;;;;;;6.00;1.80;;;16.00;43.60;;;;;;5035151;28;20045;-84
2021/03/29 09:57:17;;;;;;;7.38;1.90;;;16.10;43.60;;;;;;5035165;28;20104;-82
2021/03/29 09:59:48;;;;;;;4.60;1.80;;;16.30;43.70;;;;;;5016962;28;20037;-84
2021/03/29 10:02:34;;;;;;;7.28;2.03;;;16.40;43.60;;;;;;5017699;28;20033;-84
2021/03/29 10:05:07;;;;;;;6.20;2.10;;;16.50;43.50;;;;;;5017996;28;20351;-86
2021/03/29 10:07:33;;;;;;;6.93;2.03;;;16.60;43.30;;;;;;5017623;28;20037;-83
2021/03/29 10:10:04;;;;;;;8.05;2.03;;;16.40;43.20;;;;;;5017554;28;20055;-84
2021/03/29 10:12:32;;;;;;;6.47;2.10;;;16.80;44.10;;;;;;5034907;28;20120;-83
2021/03/29 10:15:12;;;;;;;8.85;2.10;;;17.10;43.50;;;;;;5034999;28;20021;-83
2021/03/29 10:17:38;;;;;;;5.72;1.90;;;17.10;43.60;;;;;;5034661;28;20063;-86
2021/03/29 10:20:12;;;;;;;4.57;1.63;;;17.20;43.80;;;;;;5017185;28;20018;-85
2021/03/29 10:22:38;;;;;;;3.78;1.70;;;17.40;43.40;;;;;;5034262;28;20053;-81
2021/03/29 10:29:21;;;;;;;;;;;;;;;;;;;;;
2021/03/29 10:32:17;;;;;;;3.83;1.55;;;17.80;43.20;;;;;;5035483;28;20037;-87
2021/03/29 10:34:43;;;;;;;;;;;18.10;43.30;;;;;;5008454;28;20398;-89
2021/03/29 10:37:28;;;;;;;7.88;2.38;;;18.20;43.10;;;;;;5017070;28;19959;-89
2021/03/29 10:39:56;;;;;;;2.60;1.35;;;18.30;42.90;;;;;;5016888;28;20477;-85
2021/03/29 10:42:25;;;;;;;6.57;2.08;;;18.60;43.30;;;;;;5016648;28;20120;-88
2021/03/29 10:44:54;;;;;;;5.25;2.03;;;18.80;43.80;;;;;;5016932;28;20120;-88
2021/03/29 10:47:21;;;;;;;3.53;1.83;;;19.20;44.20;;;;;;5016867;28;20025;-88
2021/03/29 10:53:10;;;;;;;4.25;1.80;;;19.80;43.50;;;;;;5035821;28;20072;-82
2021/03/29 10:55:36;;;;;;;4.75;1.70;;;20.30;43.90;;;;;;5000040;28;20108;-82
2021/03/29 10:58:02;;;;;;;3.28;1.83;;;20.40;44.30;;;;;;5000120;28;20173;-82
2021/03/29 11:00:30;;;;;;;6.38;2.22;;;20.70;44.20;;;;;;5001879;28;20370;-93
2021/03/29 11:03:06;;;;;;;4.05;1.90;;;20.90;43.80;;;;;;5017024;28;20042;-91
2021/03/29 11:05:35;;;;;;;5.60;2.03;;;21.10;43.70;;;;;;5017088;28;20428;-91
2021/03/29 11:08:19;;;;;;;4.90;1.63;;;21.50;44.20;;;;;;5016945;28;20017;-90
2021/03/29 11:10:49;;;;;;;5.78;2.10;;;21.80;44.60;;;;;;5016972;28;20393;-86
2021/03/29 11:13:14;;;;;;;5.68;2.65;;;22.20;44.30;;;;;;5015767;28;20045;-90
2021/03/29 11:15:40;;;;;;;4.97;1.90;;;22.50;44.20;;;;;;5016796;28;20029;-89
2021/03/29 11:18:07;;;;;;;2.67;1.35;;;22.80;44.20;;;;;;4996770;28;20050;-88
2021/03/29 11:20:34;;;;;;;4.15;1.70;;;23.10;43.60;;;;;;4996565;28;20041;-89
2021/03/29 11:23:00;;;;;;;3.63;1.65;;;23.20;43.40;;;;;;5012978;28;20026;-89
2021/03/29 11:25:27;;;;;;;3.70;1.65;;;23.40;43.20;;;;;;5013084;28;20359;-93
2021/03/29 11:27:53;;;;;;;2.65;1.45;;;23.50;42.80;;;;;;5012881;28;20026;-89
2021/03/29 11:30:20;;;;;;;4.95;1.90;;;23.70;42.90;;;;;;5012685;28;20113;-89
2021/03/29 11:32:52;;;;;;;4.15;1.80;;;23.80;42.30;;;;;;4996556;28;20124;-84
2021/03/29 11:36:18;;;;;;;4.28;1.75;;;24.00;42.20;;;;;;4996174;28;20443;-92
2021/03/29 11:38:49;;;;;;;5.55;1.95;;;24.40;42.70;;;;;;4967715;28;20088;-94
2021/03/29 11:41:20;;;;;;;3.55;1.70;;;24.60;41.90;;;;;;5014272;28;20061;-91
2021/03/29 11:44:06;;;;;;;4.85;1.67;;;24.60;40.50;;;;;;4996439;28;20026;-89
2021/03/29 11:46:35;;;;;;;5.32;1.60;;;24.70;40.80;;;;;;5011804;28;20128;-88
2021/03/29 11:49:02;;;;;;;6.05;1.90;;;25.10;41.40;;;;;;5012680;28;20017;-92
2021/03/29 11:51:35;;;;;;;2.03;1.50;;;25.40;41.20;;;;;;5012742;28;20378;-85
2021/03/29 12:04:41;;;;;;;2.65;1.73;;;26.20;40.00;;;;;;4896248;28;20377;-88
2021/03/29 12:07:19;;;;;;;5.18;1.73;;;26.70;40.40;;;;;;4881720;29;20468;-94
2021/03/29 12:12:54;;;;;;;5.85;1.88;;;27.20;39.40;;;;;;4914106;29;20055;-84
2021/03/29 12:15:23;;;;;;;3.88;1.80;;;27.10;37.90;;;;;;4898921;29;20123;-92
2021/03/29 12:17:50;;;;;;;4.47;2.05;;;27.20;39.00;;;;;;4997665;28;20092;-92
2021/03/29 12:20:19;;;;;;;3.25;1.88;;;27.50;38.80;;;;;;5012761;28;20044;-86
2021/03/29 12:23:24;;;;;;;4.68;1.95;;;27.70;38.50;;;;;;4996159;28;20496;-88
2021/03/29 12:55:43;;;;;;;;;;;;;;;;;;;;;
2021/03/29 12:58:11;;;;;;;5.75;2.13;;;29.10;34.70;;;;;;4996615;28;20028;-87
2021/03/29 13:00:38;;;;;;;3.92;1.70;;;29.60;34.30;;;;;;4979625;28;20125;-84
2021/03/29 13:03:27;;;;;;;4.70;1.75;;;30.10;34.40;;;;;;4979776;28;20026;-84
2021/03/29 13:06:16;;;;;;;4.43;1.90;;;30.30;34.20;;;;;;4995692;28;20026;-82
2021/03/29 13:09:17;;;;;;;3.10;1.58;;;30.60;34.40;;;;;;4995257;28;20387;-87
2021/03/29 13:12:05;;;;;;;2.88;1.55;;;30.90;33.30;;;;;;4995497;28;20092;-87
2021/03/29 13:22:50;;;;;;;2.95;1.67;;;32.10;33.70;;;;;;4899924;29;20028;-88
2021/03/29 13:33:13;;;;;;;4.47;1.85;;;32.20;33.00;;;;;;4841721;29;20034;-89
2021/03/29 13:35:44;;;;;;;2.88;1.60;;;32.30;32.00;;;;;;4827662;29;20506;-94
2021/03/29 13:38:29;;;;;;;;;;;;;;;;;;;;;
2021/03/29 13:41:35;;;;;;;;;;;;;;;;;;;;;
2021/03/29 13:44:37;;;;;;;;;;;;;;;;;;;;;
2021/03/29 13:47:13;;;;;;;3.08;1.70;;;33.40;32.10;;;;;;4913528;29;20036;-93
2021/03/29 13:49:55;;;;;;;6.65;1.77;;;33.50;30.20;;;;;;4902573;29;20047;-90
2021/03/29 13:52:51;;;;;;;;;;;;;;;;;;;;;
2021/03/29 13:56:12;;;;;;;5.22;1.73;;;33.70;31.30;;;;;;4978962;28;20050;-93
2021/03/29 13:58:37;;;;;;;4.88;1.77;;;33.90;30.40;;;;;;4915946;29;20377;-87
2021/03/29 14:01:04;;;;;;;4.45;1.90;;;34.20;31.20;;;;;;4959033;28;20126;-83
2021/03/29 14:03:30;;;;;;;4.63;1.83;;;34.80;31.90;;;;;;4975314;28;20029;-83
2021/03/29 14:05:57;;;;;;;3.00;1.60;;;35.30;31.10;;;;;;4959249;28;20042;-83
2021/03/29 14:08:22;;;;;;;4.55;2.05;;;35.50;30.50;;;;;;4974660;28;20034;-83
2021/03/29 14:10:49;;;;;;;2.08;1.60;;;35.50;31.30;;;;;;4974828;28;20030;-83
2021/03/29 14:13:14;;;;;;;3.97;1.80;;;36.20;31.90;;;;;;4958784;28;20513;-83
2021/03/29 14:15:43;;;;;;;4.43;1.60;;;36.20;29.80;;;;;;4974757;28;20043;-83
2021/03/29 14:18:09;;;;;;;3.38;1.50;;;36.30;29.90;;;;;;4974860;28;20034;-83
2021/03/29 14:20:34;;;;;;;4.53;1.80;;;36.40;30.00;;;;;;4974961;28;20069;-83
2021/03/29 14:23:00;;;;;;;3.92;1.92;;;36.30;29.30;;;;;;4974681;28;20026;-83
2021/03/29 14:25:26;;;;;;;3.00;1.70;;;36.30;29.00;;;;;;4974922;28;20034;-83
2021/03/29 14:27:53;;;;;;;12.93;1.83;;;36.20;29.20;;;;;;4974554;28;20027;-83
2021/03/29 14:30:20;;;;;;;4.10;1.92;;;36.60;29.70;;;;;;4974616;28;20211;-83
2021/03/29 14:32:47;;;;;;;4.95;1.88;;;36.30;28.20;;;;;;4975858;28;20603;-83
2021/03/29 14:37:58;;;;;;;4.45;2.00;;;35.10;27.60;;;;;;4975951;28;20054;-82
2021/03/29 14:43:01;;;;;;;4.18;2.10;;;34.50;27.20;;;;;;4975822;28;20486;-83
2021/03/29 14:45:27;;;;;;;4.13;1.70;;;34.00;26.40;;;;;;4975434;28;20045;-82
2021/03/29 14:47:54;;;;;;;3.92;1.83;;;33.70;26.80;;;;;;4994879;28;20027;-82
2021/03/29 14:50:20;;;;;;;6.72;1.95;;;33.50;26.50;;;;;;4993392;28;20053;-82
2021/03/29 14:52:47;;;;;;;6.57;3.88;;;33.20;26.50;;;;;;4994841;28;20034;-82
2021/03/29 14:55:17;;;;;;;3.65;1.83;;;33.10;26.50;;;;;;4993650;28;20097;-82
2021/03/29 14:57:43;;;;;;;4.47;2.17;;;33.20;26.50;;;;;;4994613;28;20101;-83
2021/03/29 15:00:14;;;;;;;4.53;1.90;;;33.10;26.50;;;;;;4993688;28;20117;-82
2021/03/29 15:02:40;;;;;;;4.63;1.70;;;33.40;26.90;;;;;;4994441;28;20030;-82
2021/03/29 15:05:07;;;;;;;3.00;1.77;;;33.40;26.50;;;;;;4993288;28;20033;-83
2021/03/29 15:07:33;;;;;;;4.10;1.75;;;33.20;26.10;;;;;;4994847;28;20077;-82